sensor_id;sensor_type;location;lat;lon;timestamp;P1;P2;P0
70436;PMS5003;57877;39.750;-104.894;2023-04-24T00:01:22;3;3;
70436;PMS5003;57877;39.750;-104.894;2023-04-24T00:03:47;3;3;
70436;PMS5003;57877;39.750;-104.894;2023-04-24T00:06:12;4;4;
70436;PMS5003;57877;39.750;-104.894;2023-04-24T00:08:37;2;2;
70436;PMS5003;57877;39.750;-104.894;2023-04-24T00:11:02;3;3;
70436;PMS5003;57877;39.750;-104.894;2023-04-24T00:13:28;2;2;
70436;PMS5003;57877;39.750;-104.894;2023-04-24T00:15:53;2;1;
70436;PMS5003;57877;39.750;-104.894;2023-04-24T00:18:18;2;2;
70436;PMS5003;57877;39.750;-104.894;2023-04-24T00:20:44;1;1;
70436;PMS5003;57877;39.750;-104.894;2023-04-24T00:23:09;1;1;
70436;PMS5003;57877;39.750;-104.894;2023-04-24T00:25:34;1;0;
70436;PMS5003;57877;39.750;-104.894;2023-04-24T00:27:59;2;2;
70436;PMS5003;57877;39.750;-104.894;2023-04-24T00:30:24;2;2;
70436;PMS5003;57877;39.750;-104.894;2023-04-24T00:32:49;1;1;
70436;PMS5003;57877;39.750;-104.894;2023-04-24T00:35:15;2;1;
70436;PMS5003;57877;39.750;-104.894;2023-04-24T00:37:40;2;2;
70436;PMS5003;57877;39.750;-104.894;2023-04-24T00:40:05;1;1;
70436;PMS5003;57877;39.750;-104.894;2023-04-24T00:42:30;1;1;
70436;PMS5003;57877;39.750;-104.894;2023-04-24T00:44:55;2;2;
70436;PMS5003;57877;39.750;-104.894;2023-04-24T00:47:20;2;0;
70436;PMS5003;57877;39.750;-104.894;2023-04-24T00:49:45;1;1;
70436;PMS5003;57877;39.750;-104.894;2023-04-24T00:52:10;0;0;
70436;PMS5003;57877;39.750;-104.894;2023-04-24T00:54:35;2;1;
70436;PMS5003;57877;39.750;-104.894;2023-04-24T00:57:00;2;2;
70436;PMS5003;57877;39.750;-104.894;2023-04-24T00:59:25;0;0;
70436;PMS5003;57877;39.750;-104.894;2023-04-24T01:01:50;0;0;
70436;PMS5003;57877;39.750;-104.894;2023-04-24T01:04:15;1;1;
70436;PMS5003;57877;39.750;-104.894;2023-04-24T01:06:40;0;0;
70436;PMS5003;57877;39.750;-104.894;2023-04-24T01:09:05;0;0;
70436;PMS5003;57877;39.750;-104.894;2023-04-24T01:11:30;1;0;
70436;PMS5003;57877;39.750;-104.894;2023-04-24T01:13:55;1;1;
70436;PMS5003;57877;39.750;-104.894;2023-04-24T01:16:20;2;2;
70436;PMS5003;57877;39.750;-104.894;2023-04-24T01:18:45;1;1;
70436;PMS5003;57877;39.750;-104.894;2023-04-24T01:21:10;2;1;
70436;PMS5003;57877;39.750;-104.894;2023-04-24T01:23:36;1;1;
70436;PMS5003;57877;39.750;-104.894;2023-04-24T01:26:02;0;0;
70436;PMS5003;57877;39.750;-104.894;2023-04-24T01:28:27;1;1;
70436;PMS5003;57877;39.750;-104.894;2023-04-24T01:30:53;1;1;
70436;PMS5003;57877;39.750;-104.894;2023-04-24T01:33:20;0;0;
70436;PMS5003;57877;39.750;-104.894;2023-04-24T01:35:44;0;0;
70436;PMS5003;57877;39.750;-104.894;2023-04-24T01:38:09;1;0;
70436;PMS5003;57877;39.750;-104.894;2023-04-24T01:40:34;0;0;
70436;PMS5003;57877;39.750;-104.894;2023-04-24T01:43:00;1;1;
70436;PMS5003;57877;39.750;-104.894;2023-04-24T01:45:25;1;0;
70436;PMS5003;57877;39.750;-104.894;2023-04-24T01:47:51;0;0;
70436;PMS5003;57877;39.750;-104.894;2023-04-24T01:50:18;0;0;
70436;PMS5003;57877;39.750;-104.894;2023-04-24T01:52:43;0;0;
70436;PMS5003;57877;39.750;-104.894;2023-04-24T01:55:09;1;0;
70436;PMS5003;57877;39.750;-104.894;2023-04-24T01:57:35;1;0;
70436;PMS5003;57877;39.750;-104.894;2023-04-24T02:00:01;0;0;
70436;PMS5003;57877;39.750;-104.894;2023-04-24T02:02:27;1;1;
70436;PMS5003;57877;39.750;-104.894;2023-04-24T02:04:53;1;1;
70436;PMS5003;57877;39.750;-104.894;2023-04-24T02:07:18;0;0;
70436;PMS5003;57877;39.750;-104.894;2023-04-24T02:09:45;1;1;
70436;PMS5003;57877;39.750;-104.894;2023-04-24T02:12:09;1;1;
70436;PMS5003;57877;39.750;-104.894;2023-04-24T02:14:41;2;1;
70436;PMS5003;57877;39.750;-104.894;2023-04-24T02:16:59;0;0;
70436;PMS5003;57877;39.750;-104.894;2023-04-24T02:19:24;0;0;
70436;PMS5003;57877;39.750;-104.894;2023-04-24T02:21:49;2;2;
70436;PMS5003;57877;39.750;-104.894;2023-04-24T02:24:14;1;0;
70436;PMS5003;57877;39.750;-104.894;2023-04-24T02:26:40;2;1;
70436;PMS5003;57877;39.750;-104.894;2023-04-24T02:29:05;1;1;
70436;PMS5003;57877;39.750;-104.894;2023-04-24T02:31:30;0;0;
70436;PMS5003;57877;39.750;-104.894;2023-04-24T02:33:55;2;2;
70436;PMS5003;57877;39.750;-104.894;2023-04-24T02:36:20;0;0;
70436;PMS5003;57877;39.750;-104.894;2023-04-24T02:38:45;3;3;
70436;PMS5003;57877;39.750;-104.894;2023-04-24T02:41:10;0;0;
70436;PMS5003;57877;39.750;-104.894;2023-04-24T02:43:35;1;0;
70436;PMS5003;57877;39.750;-104.894;2023-04-24T02:46:01;0;0;
70436;PMS5003;57877;39.750;-104.894;2023-04-24T02:48:26;0;0;
70436;PMS5003;57877;39.750;-104.894;2023-04-24T02:50:51;1;1;
70436;PMS5003;57877;39.750;-104.894;2023-04-24T02:53:16;2;2;
70436;PMS5003;57877;39.750;-104.894;2023-04-24T02:55:41;2;2;
70436;PMS5003;57877;39.750;-104.894;2023-04-24T02:58:06;1;1;
70436;PMS5003;57877;39.750;-104.894;2023-04-24T03:00:31;2;1;
70436;PMS5003;57877;39.750;-104.894;2023-04-24T03:02:56;0;0;
70436;PMS5003;57877;39.750;-104.894;2023-04-24T03:05:21;0;0;
70436;PMS5003;57877;39.750;-104.894;2023-04-24T03:07:46;0;0;
70436;PMS5003;57877;39.750;-104.894;2023-04-24T03:10:11;3;3;
70436;PMS5003;57877;39.750;-104.894;2023-04-24T03:12:36;2;2;
70436;PMS5003;57877;39.750;-104.894;2023-04-24T03:15:01;3;3;
70436;PMS5003;57877;39.750;-104.894;2023-04-24T03:17:26;3;2;
70436;PMS5003;57877;39.750;-104.894;2023-04-24T03:19:51;2;2;
70436;PMS5003;57877;39.750;-104.894;2023-04-24T03:22:16;2;2;
70436;PMS5003;57877;39.750;-104.894;2023-04-24T03:24:41;2;1;
70436;PMS5003;57877;39.750;-104.894;2023-04-24T03:27:06;3;1;
70436;PMS5003;57877;39.750;-104.894;2023-04-24T03:29:31;1;1;
70436;PMS5003;57877;39.750;-104.894;2023-04-24T03:31:57;1;1;
70436;PMS5003;57877;39.750;-104.894;2023-04-24T03:34:21;3;3;
70436;PMS5003;57877;39.750;-104.894;2023-04-24T03:36:48;2;1;
70436;PMS5003;57877;39.750;-104.894;2023-04-24T03:39:13;2;1;
70436;PMS5003;57877;39.750;-104.894;2023-04-24T03:41:38;3;3;
70436;PMS5003;57877;39.750;-104.894;2023-04-24T03:44:03;1;1;
70436;PMS5003;57877;39.750;-104.894;2023-04-24T03:46:28;1;1;
70436;PMS5003;57877;39.750;-104.894;2023-04-24T03:48:53;1;0;
70436;PMS5003;57877;39.750;-104.894;2023-04-24T03:51:19;4;4;
70436;PMS5003;57877;39.750;-104.894;2023-04-24T03:53:44;1;1;
70436;PMS5003;57877;39.750;-104.894;2023-04-24T03:56:09;3;2;
70436;PMS5003;57877;39.750;-104.894;2023-04-24T03:58:34;3;3;
70436;PMS5003;57877;39.750;-104.894;2023-04-24T04:01:00;3;3;
70436;PMS5003;57877;39.750;-104.894;2023-04-24T04:03:25;3;3;
70436;PMS5003;57877;39.750;-104.894;2023-04-24T04:05:50;5;4;
70436;PMS5003;57877;39.750;-104.894;2023-04-24T04:08:15;6;6;
70436;PMS5003;57877;39.750;-104.894;2023-04-24T04:10:40;8;8;
70436;PMS5003;57877;39.750;-104.894;2023-04-24T04:13:05;8;8;
70436;PMS5003;57877;39.750;-104.894;2023-04-24T04:15:31;4;4;
70436;PMS5003;57877;39.750;-104.894;2023-04-24T04:17:56;4;4;
70436;PMS5003;57877;39.750;-104.894;2023-04-24T04:20:22;4;4;
70436;PMS5003;57877;39.750;-104.894;2023-04-24T04:22:48;6;3;
70436;PMS5003;57877;39.750;-104.894;2023-04-24T04:25:14;8;7;
70436;PMS5003;57877;39.750;-104.894;2023-04-24T04:27:39;5;5;
70436;PMS5003;57877;39.750;-104.894;2023-04-24T04:30:05;4;3;
70436;PMS5003;57877;39.750;-104.894;2023-04-24T04:32:30;5;5;
70436;PMS5003;57877;39.750;-104.894;2023-04-24T04:34:56;3;2;
70436;PMS5003;57877;39.750;-104.894;2023-04-24T04:37:21;3;3;
70436;PMS5003;57877;39.750;-104.894;2023-04-24T04:39:47;3;3;
70436;PMS5003;57877;39.750;-104.894;2023-04-24T04:42:13;4;4;
70436;PMS5003;57877;39.750;-104.894;2023-04-24T04:44:39;3;3;
70436;PMS5003;57877;39.750;-104.894;2023-04-24T04:47:04;3;3;
70436;PMS5003;57877;39.750;-104.894;2023-04-24T04:49:29;4;4;
70436;PMS5003;57877;39.750;-104.894;2023-04-24T04:51:54;2;2;
70436;PMS5003;57877;39.750;-104.894;2023-04-24T04:54:19;1;1;
70436;PMS5003;57877;39.750;-104.894;2023-04-24T04:56:44;2;1;
70436;PMS5003;57877;39.750;-104.894;2023-04-24T04:59:10;3;1;
70436;PMS5003;57877;39.750;-104.894;2023-04-24T05:01:35;3;3;
70436;PMS5003;57877;39.750;-104.894;2023-04-24T05:04:00;2;2;
70436;PMS5003;57877;39.750;-104.894;2023-04-24T05:06:25;3;3;
70436;PMS5003;57877;39.750;-104.894;2023-04-24T05:08:50;2;2;
70436;PMS5003;57877;39.750;-104.894;2023-04-24T05:11:15;4;3;
70436;PMS5003;57877;39.750;-104.894;2023-04-24T05:13:40;2;2;
70436;PMS5003;57877;39.750;-104.894;2023-04-24T05:16:05;1;1;
70436;PMS5003;57877;39.750;-104.894;2023-04-24T05:18:31;0;0;
70436;PMS5003;57877;39.750;-104.894;2023-04-24T05:20:55;1;1;
70436;PMS5003;57877;39.750;-104.894;2023-04-24T05:23:21;2;1;
70436;PMS5003;57877;39.750;-104.894;2023-04-24T05:25:46;2;2;
70436;PMS5003;57877;39.750;-104.894;2023-04-24T05:28:11;1;1;
70436;PMS5003;57877;39.750;-104.894;2023-04-24T05:30:36;1;0;
70436;PMS5003;57877;39.750;-104.894;2023-04-24T05:33:01;1;1;
70436;PMS5003;57877;39.750;-104.894;2023-04-24T05:35:26;2;2;
70436;PMS5003;57877;39.750;-104.894;2023-04-24T05:37:51;1;1;
70436;PMS5003;57877;39.750;-104.894;2023-04-24T05:40:17;0;0;
70436;PMS5003;57877;39.750;-104.894;2023-04-24T05:42:42;1;1;
70436;PMS5003;57877;39.750;-104.894;2023-04-24T05:45:07;0;0;
70436;PMS5003;57877;39.750;-104.894;2023-04-24T05:47:32;0;0;
70436;PMS5003;57877;39.750;-104.894;2023-04-24T05:49:57;2;2;
70436;PMS5003;57877;39.750;-104.894;2023-04-24T05:52:22;1;1;
70436;PMS5003;57877;39.750;-104.894;2023-04-24T05:54:47;2;2;
70436;PMS5003;57877;39.750;-104.894;2023-04-24T05:57:12;1;0;
70436;PMS5003;57877;39.750;-104.894;2023-04-24T05:59:37;1;0;
70436;PMS5003;57877;39.750;-104.894;2023-04-24T06:02:02;3;3;
70436;PMS5003;57877;39.750;-104.894;2023-04-24T06:04:27;1;1;
70436;PMS5003;57877;39.750;-104.894;2023-04-24T06:06:52;4;4;
70436;PMS5003;57877;39.750;-104.894;2023-04-24T06:09:17;0;0;
70436;PMS5003;57877;39.750;-104.894;2023-04-24T06:11:42;3;3;
70436;PMS5003;57877;39.750;-104.894;2023-04-24T06:14:08;1;1;
70436;PMS5003;57877;39.750;-104.894;2023-04-24T06:16:33;3;3;
70436;PMS5003;57877;39.750;-104.894;2023-04-24T06:18:58;2;0;
70436;PMS5003;57877;39.750;-104.894;2023-04-24T06:21:23;2;1;
70436;PMS5003;57877;39.750;-104.894;2023-04-24T06:23:48;2;2;
70436;PMS5003;57877;39.750;-104.894;2023-04-24T06:26:13;2;2;
70436;PMS5003;57877;39.750;-104.894;2023-04-24T06:28:38;1;1;
70436;PMS5003;57877;39.750;-104.894;2023-04-24T06:31:03;2;2;
70436;PMS5003;57877;39.750;-104.894;2023-04-24T06:33:28;2;2;
70436;PMS5003;57877;39.750;-104.894;2023-04-24T06:35:53;2;2;
70436;PMS5003;57877;39.750;-104.894;2023-04-24T06:38:18;3;2;
70436;PMS5003;57877;39.750;-104.894;2023-04-24T06:40:43;1;1;
70436;PMS5003;57877;39.750;-104.894;2023-04-24T06:43:08;2;2;
70436;PMS5003;57877;39.750;-104.894;2023-04-24T06:45:33;3;2;
70436;PMS5003;57877;39.750;-104.894;2023-04-24T06:47:59;1;1;
70436;PMS5003;57877;39.750;-104.894;2023-04-24T06:50:24;1;1;
70436;PMS5003;57877;39.750;-104.894;2023-04-24T06:52:49;3;1;
70436;PMS5003;57877;39.750;-104.894;2023-04-24T06:55:14;3;3;
70436;PMS5003;57877;39.750;-104.894;2023-04-24T06:57:39;3;3;
70436;PMS5003;57877;39.750;-104.894;2023-04-24T07:00:04;3;3;
70436;PMS5003;57877;39.750;-104.894;2023-04-24T07:02:29;2;1;
70436;PMS5003;57877;39.750;-104.894;2023-04-24T07:04:54;3;3;
70436;PMS5003;57877;39.750;-104.894;2023-04-24T07:07:19;2;1;
70436;PMS5003;57877;39.750;-104.894;2023-04-24T07:09:44;2;2;
70436;PMS5003;57877;39.750;-104.894;2023-04-24T07:12:09;2;2;
70436;PMS5003;57877;39.750;-104.894;2023-04-24T07:14:34;1;1;
70436;PMS5003;57877;39.750;-104.894;2023-04-24T07:16:59;2;2;
70436;PMS5003;57877;39.750;-104.894;2023-04-24T07:19:24;2;2;
70436;PMS5003;57877;39.750;-104.894;2023-04-24T07:21:49;3;3;
70436;PMS5003;57877;39.750;-104.894;2023-04-24T07:24:14;4;3;
70436;PMS5003;57877;39.750;-104.894;2023-04-24T07:26:40;3;3;
70436;PMS5003;57877;39.750;-104.894;2023-04-24T07:29:05;3;3;
70436;PMS5003;57877;39.750;-104.894;2023-04-24T07:31:31;5;5;
70436;PMS5003;57877;39.750;-104.894;2023-04-24T07:33:55;4;4;
70436;PMS5003;57877;39.750;-104.894;2023-04-24T07:36:20;4;4;
70436;PMS5003;57877;39.750;-104.894;2023-04-24T07:38:45;5;5;
70436;PMS5003;57877;39.750;-104.894;2023-04-24T07:41:11;5;4;
70436;PMS5003;57877;39.750;-104.894;2023-04-24T07:43:36;4;4;
70436;PMS5003;57877;39.750;-104.894;2023-04-24T07:46:01;3;3;
70436;PMS5003;57877;39.750;-104.894;2023-04-24T07:48:26;4;3;
70436;PMS5003;57877;39.750;-104.894;2023-04-24T07:50:51;5;4;
70436;PMS5003;57877;39.750;-104.894;2023-04-24T07:53:16;5;5;
70436;PMS5003;57877;39.750;-104.894;2023-04-24T07:55:42;5;5;
70436;PMS5003;57877;39.750;-104.894;2023-04-24T07:58:06;6;6;
70436;PMS5003;57877;39.750;-104.894;2023-04-24T08:00:32;8;7;
70436;PMS5003;57877;39.750;-104.894;2023-04-24T08:02:57;4;4;
70436;PMS5003;57877;39.750;-104.894;2023-04-24T08:05:22;6;6;
70436;PMS5003;57877;39.750;-104.894;2023-04-24T08:07:47;6;6;
70436;PMS5003;57877;39.750;-104.894;2023-04-24T08:10:12;6;6;
70436;PMS5003;57877;39.750;-104.894;2023-04-24T08:12:37;5;5;
70436;PMS5003;57877;39.750;-104.894;2023-04-24T08:15:02;5;5;
70436;PMS5003;57877;39.750;-104.894;2023-04-24T08:17:27;4;4;
70436;PMS5003;57877;39.750;-104.894;2023-04-24T08:19:52;4;4;
70436;PMS5003;57877;39.750;-104.894;2023-04-24T08:22:17;4;4;
70436;PMS5003;57877;39.750;-104.894;2023-04-24T08:24:42;3;3;
70436;PMS5003;57877;39.750;-104.894;2023-04-24T08:27:08;6;6;
70436;PMS5003;57877;39.750;-104.894;2023-04-24T08:29:32;5;5;
70436;PMS5003;57877;39.750;-104.894;2023-04-24T08:31:57;6;6;
70436;PMS5003;57877;39.750;-104.894;2023-04-24T08:34:23;3;3;
70436;PMS5003;57877;39.750;-104.894;2023-04-24T08:36:48;4;4;
70436;PMS5003;57877;39.750;-104.894;2023-04-24T08:39:13;4;4;
70436;PMS5003;57877;39.750;-104.894;2023-04-24T08:41:38;3;3;
70436;PMS5003;57877;39.750;-104.894;2023-04-24T08:44:03;5;4;
70436;PMS5003;57877;39.750;-104.894;2023-04-24T08:46:28;5;5;
70436;PMS5003;57877;39.750;-104.894;2023-04-24T08:48:53;4;4;
70436;PMS5003;57877;39.750;-104.894;2023-04-24T08:51:18;6;5;
70436;PMS5003;57877;39.750;-104.894;2023-04-24T08:53:43;4;4;
70436;PMS5003;57877;39.750;-104.894;2023-04-24T08:56:08;5;5;
70436;PMS5003;57877;39.750;-104.894;2023-04-24T08:58:33;4;4;
70436;PMS5003;57877;39.750;-104.894;2023-04-24T09:00:58;4;4;
70436;PMS5003;57877;39.750;-104.894;2023-04-24T09:03:23;4;4;
70436;PMS5003;57877;39.750;-104.894;2023-04-24T09:05:49;5;5;
70436;PMS5003;57877;39.750;-104.894;2023-04-24T09:08:14;4;4;
70436;PMS5003;57877;39.750;-104.894;2023-04-24T09:10:39;5;5;
70436;PMS5003;57877;39.750;-104.894;2023-04-24T09:13:03;7;7;
70436;PMS5003;57877;39.750;-104.894;2023-04-24T09:15:29;5;5;
70436;PMS5003;57877;39.750;-104.894;2023-04-24T09:17:54;7;6;
70436;PMS5003;57877;39.750;-104.894;2023-04-24T09:20:19;4;4;
70436;PMS5003;57877;39.750;-104.894;2023-04-24T09:22:44;5;5;
70436;PMS5003;57877;39.750;-104.894;2023-04-24T09:25:09;3;3;
70436;PMS5003;57877;39.750;-104.894;2023-04-24T09:27:34;5;5;
70436;PMS5003;57877;39.750;-104.894;2023-04-24T09:29:59;3;3;
70436;PMS5003;57877;39.750;-104.894;2023-04-24T09:32:24;5;5;
70436;PMS5003;57877;39.750;-104.894;2023-04-24T09:34:49;4;4;
70436;PMS5003;57877;39.750;-104.894;2023-04-24T09:39:39;6;6;
70436;PMS5003;57877;39.750;-104.894;2023-04-24T09:42:04;3;3;
70436;PMS5003;57877;39.750;-104.894;2023-04-24T09:44:29;3;3;
70436;PMS5003;57877;39.750;-104.894;2023-04-24T09:46:55;6;6;
70436;PMS5003;57877;39.750;-104.894;2023-04-24T09:49:21;7;6;
70436;PMS5003;57877;39.750;-104.894;2023-04-24T09:51:45;6;6;
70436;PMS5003;57877;39.750;-104.894;2023-04-24T09:54:13;6;6;
70436;PMS5003;57877;39.750;-104.894;2023-04-24T09:56:36;5;4;
70436;PMS5003;57877;39.750;-104.894;2023-04-24T09:59:05;5;5;
70436;PMS5003;57877;39.750;-104.894;2023-04-24T10:01:30;8;7;
70436;PMS5003;57877;39.750;-104.894;2023-04-24T10:03:51;7;7;
70436;PMS5003;57877;39.750;-104.894;2023-04-24T10:06:16;5;5;
70436;PMS5003;57877;39.750;-104.894;2023-04-24T10:08:41;5;5;
70436;PMS5003;57877;39.750;-104.894;2023-04-24T10:11:06;5;5;
70436;PMS5003;57877;39.750;-104.894;2023-04-24T10:13:31;5;4;
70436;PMS5003;57877;39.750;-104.894;2023-04-24T10:15:56;5;5;
70436;PMS5003;57877;39.750;-104.894;2023-04-24T10:18:22;5;5;
70436;PMS5003;57877;39.750;-104.894;2023-04-24T10:20:47;6;6;
70436;PMS5003;57877;39.750;-104.894;2023-04-24T10:23:12;5;5;
70436;PMS5003;57877;39.750;-104.894;2023-04-24T10:25:37;5;5;
70436;PMS5003;57877;39.750;-104.894;2023-04-24T10:28:02;5;5;
70436;PMS5003;57877;39.750;-104.894;2023-04-24T10:30:28;5;5;
70436;PMS5003;57877;39.750;-104.894;2023-04-24T10:32:52;5;5;
70436;PMS5003;57877;39.750;-104.894;2023-04-24T10:35:17;7;6;
70436;PMS5003;57877;39.750;-104.894;2023-04-24T10:37:44;5;4;
70436;PMS5003;57877;39.750;-104.894;2023-04-24T10:40:08;5;5;
70436;PMS5003;57877;39.750;-104.894;2023-04-24T10:42:33;6;4;
70436;PMS5003;57877;39.750;-104.894;2023-04-24T10:44:58;4;4;
70436;PMS5003;57877;39.750;-104.894;2023-04-24T10:47:23;6;6;
70436;PMS5003;57877;39.750;-104.894;2023-04-24T10:49:48;5;5;
70436;PMS5003;57877;39.750;-104.894;2023-04-24T10:52:13;8;7;
70436;PMS5003;57877;39.750;-104.894;2023-04-24T10:54:41;3;3;
70436;PMS5003;57877;39.750;-104.894;2023-04-24T10:59:29;5;4;
70436;PMS5003;57877;39.750;-104.894;2023-04-24T11:01:54;3;3;
70436;PMS5003;57877;39.750;-104.894;2023-04-24T11:04:22;3;3;
70436;PMS5003;57877;39.750;-104.894;2023-04-24T11:06:44;5;4;
70436;PMS5003;57877;39.750;-104.894;2023-04-24T11:09:09;3;3;
70436;PMS5003;57877;39.750;-104.894;2023-04-24T11:11:34;6;4;
70436;PMS5003;57877;39.750;-104.894;2023-04-24T11:16:26;4;4;
70436;PMS5003;57877;39.750;-104.894;2023-04-24T11:18:50;5;5;
70436;PMS5003;57877;39.750;-104.894;2023-04-24T11:21:15;3;3;
70436;PMS5003;57877;39.750;-104.894;2023-04-24T11:23:39;4;4;
70436;PMS5003;57877;39.750;-104.894;2023-04-24T11:28:29;3;3;
70436;PMS5003;57877;39.750;-104.894;2023-04-24T11:30:54;5;5;
70436;PMS5003;57877;39.750;-104.894;2023-04-24T11:33:20;5;5;
70436;PMS5003;57877;39.750;-104.894;2023-04-24T11:35:45;5;5;
70436;PMS5003;57877;39.750;-104.894;2023-04-24T11:38:10;5;5;
70436;PMS5003;57877;39.750;-104.894;2023-04-24T11:40:35;4;4;
70436;PMS5003;57877;39.750;-104.894;2023-04-24T11:43:00;4;4;
70436;PMS5003;57877;39.750;-104.894;2023-04-24T11:45:25;4;4;
70436;PMS5003;57877;39.750;-104.894;2023-04-24T11:47:50;3;3;
70436;PMS5003;57877;39.750;-104.894;2023-04-24T11:50:15;6;6;
70436;PMS5003;57877;39.750;-104.894;2023-04-24T11:52:41;4;4;
70436;PMS5003;57877;39.750;-104.894;2023-04-24T11:55:06;6;6;
70436;PMS5003;57877;39.750;-104.894;2023-04-24T11:57:30;3;3;
70436;PMS5003;57877;39.750;-104.894;2023-04-24T11:59:55;3;2;
70436;PMS5003;57877;39.750;-104.894;2023-04-24T12:02:21;6;6;
70436;PMS5003;57877;39.750;-104.894;2023-04-24T12:04:46;5;5;
70436;PMS5003;57877;39.750;-104.894;2023-04-24T12:07:11;6;5;
70436;PMS5003;57877;39.750;-104.894;2023-04-24T12:12:01;4;4;
70436;PMS5003;57877;39.750;-104.894;2023-04-24T12:14:26;5;5;
70436;PMS5003;57877;39.750;-104.894;2023-04-24T12:16:51;6;6;
70436;PMS5003;57877;39.750;-104.894;2023-04-24T12:19:18;6;6;
70436;PMS5003;57877;39.750;-104.894;2023-04-24T12:21:41;4;4;
70436;PMS5003;57877;39.750;-104.894;2023-04-24T12:24:06;4;4;
70436;PMS5003;57877;39.750;-104.894;2023-04-24T12:26:31;5;5;
70436;PMS5003;57877;39.750;-104.894;2023-04-24T12:29:01;7;6;
70436;PMS5003;57877;39.750;-104.894;2023-04-24T12:31:22;5;5;
70436;PMS5003;57877;39.750;-104.894;2023-04-24T12:33:47;5;5;
70436;PMS5003;57877;39.750;-104.894;2023-04-24T12:36:12;5;5;
70436;PMS5003;57877;39.750;-104.894;2023-04-24T12:38:37;7;7;
70436;PMS5003;57877;39.750;-104.894;2023-04-24T12:41:02;6;6;
70436;PMS5003;57877;39.750;-104.894;2023-04-24T12:43:27;6;6;
70436;PMS5003;57877;39.750;-104.894;2023-04-24T12:45:52;6;6;
70436;PMS5003;57877;39.750;-104.894;2023-04-24T12:48:17;7;5;
70436;PMS5003;57877;39.750;-104.894;2023-04-24T12:50:42;6;5;
70436;PMS5003;57877;39.750;-104.894;2023-04-24T12:53:07;7;6;
70436;PMS5003;57877;39.750;-104.894;2023-04-24T12:55:32;5;5;
70436;PMS5003;57877;39.750;-104.894;2023-04-24T12:57:57;7;7;
70436;PMS5003;57877;39.750;-104.894;2023-04-24T13:00:22;6;6;
70436;PMS5003;57877;39.750;-104.894;2023-04-24T13:02:47;7;7;
70436;PMS5003;57877;39.750;-104.894;2023-04-24T13:05:12;6;6;
70436;PMS5003;57877;39.750;-104.894;2023-04-24T13:07:37;5;5;
70436;PMS5003;57877;39.750;-104.894;2023-04-24T13:10:03;8;7;
70436;PMS5003;57877;39.750;-104.894;2023-04-24T13:12:27;8;6;
70436;PMS5003;57877;39.750;-104.894;2023-04-24T13:14:52;6;6;
70436;PMS5003;57877;39.750;-104.894;2023-04-24T13:17:17;6;6;
70436;PMS5003;57877;39.750;-104.894;2023-04-24T13:19:43;7;7;
70436;PMS5003;57877;39.750;-104.894;2023-04-24T13:22:09;7;7;
70436;PMS5003;57877;39.750;-104.894;2023-04-24T13:24:33;9;9;
70436;PMS5003;57877;39.750;-104.894;2023-04-24T13:26:58;9;8;
70436;PMS5003;57877;39.750;-104.894;2023-04-24T13:29:23;12;10;
70436;PMS5003;57877;39.750;-104.894;2023-04-24T13:31:49;11;10;
70436;PMS5003;57877;39.750;-104.894;2023-04-24T13:34:13;9;7;
70436;PMS5003;57877;39.750;-104.894;2023-04-24T13:36:38;9;9;
70436;PMS5003;57877;39.750;-104.894;2023-04-24T13:39:03;10;10;
70436;PMS5003;57877;39.750;-104.894;2023-04-24T13:41:28;13;11;
70436;PMS5003;57877;39.750;-104.894;2023-04-24T13:43:53;9;8;
70436;PMS5003;57877;39.750;-104.894;2023-04-24T13:46:18;10;8;
70436;PMS5003;57877;39.750;-104.894;2023-04-24T13:48:43;12;12;
70436;PMS5003;57877;39.750;-104.894;2023-04-24T13:51:08;9;8;
70436;PMS5003;57877;39.750;-104.894;2023-04-24T13:53:33;12;11;
70436;PMS5003;57877;39.750;-104.894;2023-04-24T13:55:58;12;12;
70436;PMS5003;57877;39.750;-104.894;2023-04-24T13:58:23;10;10;
70436;PMS5003;57877;39.750;-104.894;2023-04-24T14:00:48;11;10;
70436;PMS5003;57877;39.750;-104.894;2023-04-24T14:03:14;14;12;
70436;PMS5003;57877;39.750;-104.894;2023-04-24T14:05:40;12;11;
70436;PMS5003;57877;39.750;-104.894;2023-04-24T14:08:05;12;11;
70436;PMS5003;57877;39.750;-104.894;2023-04-24T14:10:29;12;12;
70436;PMS5003;57877;39.750;-104.894;2023-04-24T14:12:55;11;11;
70436;PMS5003;57877;39.750;-104.894;2023-04-24T14:15:19;12;11;
70436;PMS5003;57877;39.750;-104.894;2023-04-24T14:17:44;10;9;
70436;PMS5003;57877;39.750;-104.894;2023-04-24T14:20:10;17;16;
70436;PMS5003;57877;39.750;-104.894;2023-04-24T14:22:35;14;12;
70436;PMS5003;57877;39.750;-104.894;2023-04-24T14:25:01;15;12;
70436;PMS5003;57877;39.750;-104.894;2023-04-24T14:27:25;10;10;
70436;PMS5003;57877;39.750;-104.894;2023-04-24T14:29:52;17;17;
70436;PMS5003;57877;39.750;-104.894;2023-04-24T14:32:16;13;11;
70436;PMS5003;57877;39.750;-104.894;2023-04-24T14:34:42;12;12;
70436;PMS5003;57877;39.750;-104.894;2023-04-24T14:37:08;15;12;
70436;PMS5003;57877;39.750;-104.894;2023-04-24T14:39:33;16;16;
70436;PMS5003;57877;39.750;-104.894;2023-04-24T14:41:58;17;17;
70436;PMS5003;57877;39.750;-104.894;2023-04-24T14:44:23;17;15;
70436;PMS5003;57877;39.750;-104.894;2023-04-24T14:46:48;17;17;
70436;PMS5003;57877;39.750;-104.894;2023-04-24T14:49:13;13;11;
70436;PMS5003;57877;39.750;-104.894;2023-04-24T14:51:38;15;15;
70436;PMS5003;57877;39.750;-104.894;2023-04-24T14:54:03;18;16;
70436;PMS5003;57877;39.750;-104.894;2023-04-24T14:56:28;15;10;
70436;PMS5003;57877;39.750;-104.894;2023-04-24T14:58:54;18;18;
70436;PMS5003;57877;39.750;-104.894;2023-04-24T15:01:20;18;15;
70436;PMS5003;57877;39.750;-104.894;2023-04-24T15:03:46;17;16;
70436;PMS5003;57877;39.750;-104.894;2023-04-24T15:06:11;17;17;
70436;PMS5003;57877;39.750;-104.894;2023-04-24T15:08:36;18;17;
70436;PMS5003;57877;39.750;-104.894;2023-04-24T15:11:02;17;15;
70436;PMS5003;57877;39.750;-104.894;2023-04-24T15:13:28;16;16;
70436;PMS5003;57877;39.750;-104.894;2023-04-24T15:15:54;16;14;
70436;PMS5003;57877;39.750;-104.894;2023-04-24T15:18:20;17;17;
70436;PMS5003;57877;39.750;-104.894;2023-04-24T15:20:46;17;17;
70436;PMS5003;57877;39.750;-104.894;2023-04-24T15:23:12;15;14;
70436;PMS5003;57877;39.750;-104.894;2023-04-24T15:25:38;14;13;
70436;PMS5003;57877;39.750;-104.894;2023-04-24T15:28:03;12;11;
70436;PMS5003;57877;39.750;-104.894;2023-04-24T15:30:28;17;17;
70436;PMS5003;57877;39.750;-104.894;2023-04-24T15:32:54;15;14;
70436;PMS5003;57877;39.750;-104.894;2023-04-24T15:35:19;14;12;
70436;PMS5003;57877;39.750;-104.894;2023-04-24T15:37:44;13;11;
70436;PMS5003;57877;39.750;-104.894;2023-04-24T15:40:10;16;14;
70436;PMS5003;57877;39.750;-104.894;2023-04-24T15:42:34;15;14;
70436;PMS5003;57877;39.750;-104.894;2023-04-24T15:44:59;12;11;
70436;PMS5003;57877;39.750;-104.894;2023-04-24T15:47:24;11;11;
70436;PMS5003;57877;39.750;-104.894;2023-04-24T15:49:49;7;7;
70436;PMS5003;57877;39.750;-104.894;2023-04-24T15:52:14;10;10;
70436;PMS5003;57877;39.750;-104.894;2023-04-24T15:54:40;10;9;